Time;durP1;ratioP1;P1;durP2;ratioP2;P2;SDS_P1;SDS_P2;PMS_P1;PMS_P2;Temp;Humidity;BMP_temperature;BMP_pressure;BME280_temperature;BME280_humidity;BME280_pressure;Samples;Min_cycle;Max_cycle;Signal;HPM_P1;HPM_P2
2023/06/09 00:00:22;;;;;;;;;;;11.60;52.00;;;;;;4144288;28;21427;-86
2023/06/09 00:02:50;;;;;;;;;;;11.60;52.00;;;;;;4154914;28;19928;-85
2023/06/09 00:05:11;;;;;;;;;;;11.50;52.00;;;;;;4145535;28;19921;-87
2023/06/09 00:07:36;;;;;;;;;;;11.40;52.40;;;;;;4144351;28;20007;-87
2023/06/09 00:09:57;;;;;;;;;;;11.40;51.30;;;;;;4157642;28;20359;-84
2023/06/09 00:12:18;;;;;;;;;;;11.30;52.60;;;;;;4157914;28;20464;-84
2023/06/09 00:14:39;;;;;;;;;;;11.30;53.20;;;;;;4161639;28;20323;-86
2023/06/09 00:17:01;;;;;;;;;;;11.20;52.70;;;;;;4155624;28;19918;-86
2023/06/09 00:19:24;;;;;;;;;;;11.10;52.20;;;;;;4146342;28;20010;-85
2023/06/09 00:21:49;;;;;;;;;;;11.20;52.20;;;;;;4157663;28;20011;-85
2023/06/09 00:24:10;;;;;;;;;;;11.00;52.20;;;;;;4163092;28;19917;-85
2023/06/09 00:26:31;;;;;;;;;;;11.10;52.20;;;;;;4141252;28;19921;-85
2023/06/09 00:28:51;;;;;;;;;;;10.90;52.10;;;;;;4161876;28;20517;-85
2023/06/09 00:31:12;;;;;;;;;;;10.90;52.60;;;;;;4160860;28;20089;-85
2023/06/09 00:33:33;;;;;;;;;;;10.80;52.80;;;;;;4157883;28;19963;-85
2023/06/09 00:35:54;;;;;;;;;;;10.80;53.20;;;;;;4161064;28;19919;-86
2023/06/09 00:38:15;;;;;;;;;;;10.80;53.30;;;;;;4144281;28;19913;-87
2023/06/09 00:40:36;;;;;;;;;;;10.70;53.20;;;;;;4161897;28;19917;-85
2023/06/09 00:42:56;;;;;;;;;;;10.70;53.50;;;;;;4142765;28;19960;-86
2023/06/09 00:45:17;;;;;;;;;;;10.60;53.60;;;;;;4162127;28;19913;-86
2023/06/09 00:47:38;;;;;;;;;;;10.50;53.40;;;;;;4162201;28;20045;-86
2023/06/09 00:49:59;;;;;;;;;;;10.50;53.90;;;;;;4163000;28;20004;-85
2023/06/09 00:52:20;;;;;;;;;;;10.50;54.00;;;;;;4162119;28;19928;-86
2023/06/09 00:54:41;;;;;;;;;;;10.40;54.10;;;;;;4153772;28;20003;-85
2023/06/09 00:57:03;;;;;;;;;;;10.40;54.40;;;;;;4147790;28;19992;-86
2023/06/09 00:59:25;;;;;;;;;;;10.40;55.50;;;;;;4145772;28;19994;-85
2023/06/09 01:01:46;;;;;;;;;;;10.40;55.00;;;;;;4161872;28;20407;-87
2023/06/09 01:04:08;;;;;;;;;;;10.30;54.90;;;;;;4159102;28;19917;-85
2023/06/09 01:06:38;;;;;;;;;;;10.30;55.00;;;;;;4145330;28;19953;-85
2023/06/09 01:09:02;;;;;;;;;;;10.20;54.60;;;;;;4161938;28;19940;-86
2023/06/09 01:11:28;;;;;;;;;;;10.20;54.80;;;;;;4143872;28;20015;-85
2023/06/09 01:14:01;;;;;;;;;;;10.20;55.20;;;;;;4159392;28;19920;-86
2023/06/09 01:16:27;;;;;;;;;;;10.10;55.20;;;;;;4157717;28;19927;-86
2023/06/09 01:18:48;;;;;;;;;;;10.10;55.00;;;;;;4144503;28;19918;-86
2023/06/09 01:21:14;;;;;;;;;;;10.10;54.50;;;;;;4161244;28;20371;-86
2023/06/09 01:23:47;;;;;;;;;;;9.90;54.60;;;;;;4160350;28;19920;-86
2023/06/09 01:26:08;;;;;;;;;;;10.00;54.90;;;;;;4161546;28;19928;-86
2023/06/09 01:28:29;;;;;;;;;;;9.90;54.90;;;;;;4160044;28;19918;-86
2023/06/09 01:30:54;;;;;;;;;;;9.90;55.10;;;;;;4150204;28;19914;-86
2023/06/09 01:33:17;;;;;;;;;;;9.90;55.50;;;;;;4162166;28;20229;-86
2023/06/09 01:35:38;;;;;;;;;;;9.80;55.20;;;;;;4159630;28;19992;-85
2023/06/09 01:38:00;;;;;;;;;;;9.80;55.30;;;;;;4159166;28;19936;-86
2023/06/09 01:40:21;;;;;;;;;;;9.80;55.40;;;;;;4160062;28;19978;-86
2023/06/09 01:42:42;;;;;;;;;;;9.80;55.70;;;;;;4158669;28;19925;-87
2023/06/09 01:45:03;;;;;;;;;;;9.80;55.80;;;;;;4160326;28;20393;-85
2023/06/09 01:47:23;;;;;;;;;;;9.70;56.00;;;;;;4164423;28;19917;-85
2023/06/09 01:50:11;;;;;;;;;;;9.60;56.00;;;;;;4142942;28;19918;-85
2023/06/09 01:52:51;;;;;;;;;;;9.60;56.20;;;;;;4144436;28;19921;-84
2023/06/09 01:55:27;;;;;;;;;;;9.60;56.40;;;;;;4162586;28;19948;-85
2023/06/09 01:58:00;;;;;;;;;;;9.50;56.20;;;;;;4150298;28;19924;-84
2023/06/09 02:00:23;;;;;;;;;;;9.50;55.80;;;;;;4155576;28;20364;-83
2023/06/09 02:02:46;;;;;;;;;;;9.50;55.80;;;;;;4160619;28;19924;-85
2023/06/09 02:05:07;;;;;;;;;;;9.50;56.10;;;;;;4163568;28;19917;-85
2023/06/09 02:07:30;;;;;;;;;;;9.50;56.60;;;;;;4163338;28;19929;-86
2023/06/09 02:09:51;;;;;;;;;;;9.50;56.60;;;;;;4144614;28;19913;-84
2023/06/09 02:12:12;;;;;;;;;;;9.50;56.80;;;;;;4178055;28;19913;-87
2023/06/09 02:14:33;;;;;;;;;;;9.40;57.00;;;;;;4182739;28;19932;-88
2023/06/09 02:16:54;;;;;;;;;;;9.50;56.80;;;;;;4180051;28;19937;-86
2023/06/09 02:19:16;;;;;;;;;;;9.50;57.20;;;;;;4181509;28;19923;-88
2023/06/09 02:21:36;;;;;;;;;;;9.50;57.50;;;;;;4182142;28;19934;-87
2023/06/09 02:23:57;;;;;;;;;;;9.50;57.60;;;;;;4178789;28;19901;-87
2023/06/09 02:26:18;;;;;;;;;;;9.40;57.80;;;;;;4166129;28;19917;-86
2023/06/09 02:28:39;;;;;;;;;;;9.50;58.10;;;;;;4142595;28;19933;-85
2023/06/09 02:31:00;;;;;;;;;;;9.40;58.10;;;;;;4168975;28;20358;-85
2023/06/09 02:33:24;;;;;;;;;;;9.50;58.40;;;;;;4169297;28;20382;-85
2023/06/09 02:35:45;;;;;;;;;;;9.40;58.40;;;;;;4147703;28;19961;-85
2023/06/09 02:38:06;;;;;;;;;;;9.50;58.70;;;;;;4157573;28;20003;-86
2023/06/09 02:40:27;;;;;;;;;;;9.40;58.80;;;;;;4164936;28;19917;-84
2023/06/09 02:42:48;;;;;;;;;;;9.50;58.70;;;;;;4157683;28;19929;-85
2023/06/09 02:45:09;;;;;;;;;;;9.50;59.10;;;;;;4155995;28;20310;-85
2023/06/09 02:47:30;;;;;;;;;;;9.50;58.70;;;;;;4159184;28;19964;-85
2023/06/09 02:49:51;;;;;;;;;;;9.50;58.00;;;;;;4160121;28;19913;-85
2023/06/09 02:52:12;;;;;;;;;;;9.60;58.60;;;;;;4144428;28;19913;-85
2023/06/09 02:54:33;;;;;;;;;;;9.50;59.30;;;;;;4158470;28;19928;-85
2023/06/09 02:56:53;;;;;;;;;;;9.60;59.80;;;;;;4150570;28;19949;-86
2023/06/09 02:59:14;;;;;;;;;;;9.60;60.00;;;;;;4158977;28;19921;-85
2023/06/09 03:01:36;;;;;;;;;;;9.60;59.90;;;;;;4156453;28;19936;-86
2023/06/09 03:03:57;;;;;;;;;;;9.60;59.70;;;;;;4138863;28;19916;-84
2023/06/09 03:06:19;;;;;;;;;;;9.60;59.90;;;;;;4165173;28;19913;-84
2023/06/09 03:08:40;;;;;;;;;;;9.80;60.10;;;;;;4158168;28;19920;-86
2023/06/09 03:11:01;;;;;;;;;;;9.60;60.20;;;;;;4161374;28;19913;-85
2023/06/09 03:13:22;;;;;;;;;;;9.70;60.50;;;;;;4142753;28;19952;-86
2023/06/09 03:15:44;;;;;;;;;;;9.70;60.20;;;;;;4160105;28;19932;-86
2023/06/09 03:18:05;;;;;;;;;;;9.80;60.10;;;;;;4159060;28;19924;-86
2023/06/09 03:20:26;;;;;;;;;;;9.70;60.40;;;;;;4144724;28;19922;-86
2023/06/09 03:22:47;;;;;;;;;;;9.70;61.10;;;;;;4162029;28;20068;-86
2023/06/09 03:25:08;;;;;;;;;;;9.80;60.70;;;;;;4156800;28;19921;-85
2023/06/09 03:27:29;;;;;;;;;;;9.80;61.40;;;;;;4142882;28;19917;-85
2023/06/09 03:29:50;;;;;;;;;;;9.80;60.90;;;;;;4141803;28;19971;-86
2023/06/09 03:32:11;;;;;;;;;;;9.80;60.80;;;;;;4156928;28;19921;-86
2023/06/09 03:34:32;;;;;;;;;;;9.80;60.70;;;;;;4159207;28;19936;-86
2023/06/09 03:36:53;;;;;;;;;;;9.90;60.90;;;;;;4156639;28;20587;-85
2023/06/09 03:39:13;;;;;;;;;;;9.80;61.60;;;;;;4157567;28;19918;-86
2023/06/09 03:41:34;;;;;;;;;;;9.80;60.50;;;;;;4160332;28;19928;-85
2023/06/09 03:43:55;;;;;;;;;;;9.80;61.10;;;;;;4157594;28;19913;-85
2023/06/09 03:46:16;;;;;;;;;;;9.90;61.40;;;;;;4157865;28;19921;-85
2023/06/09 03:48:37;;;;;;;;;;;9.90;62.30;;;;;;4142777;28;19917;-86
2023/06/09 03:50:57;;;;;;;;;;;9.90;64.20;;;;;;4158569;28;19912;-86
2023/06/09 03:53:19;;;;;;;;;;;10.00;63.30;;;;;;4162028;28;20314;-85
2023/06/09 03:55:40;;;;;;;;;;;10.00;63.40;;;;;;4158972;28;19943;-85
2023/06/09 03:58:01;;;;;;;;;;;10.00;64.60;;;;;;4164432;28;19956;-85
2023/06/09 04:00:23;;;;;;;;;;;10.10;64.60;;;;;;4160692;28;19995;-85
2023/06/09 04:02:44;;;;;;;;;;;10.10;63.70;;;;;;4159326;28;19972;-84
2023/06/09 04:05:05;;;;;;;;;;;10.30;64.90;;;;;;4146679;28;19962;-86
2023/06/09 04:07:29;;;;;;;;;;;10.20;65.90;;;;;;4153367;28;20007;-86
2023/06/09 04:09:50;;;;;;;;;;;10.20;67.30;;;;;;4168503;28;20271;-86
2023/06/09 04:12:11;;;;;;;;;;;10.40;66.40;;;;;;4157497;28;19921;-85
2023/06/09 04:14:32;;;;;;;;;;;10.30;65.90;;;;;;4157608;28;19913;-84
2023/06/09 04:16:53;;;;;;;;;;;10.50;65.30;;;;;;4161180;28;19913;-85
2023/06/09 04:19:13;;;;;;;;;;;10.50;65.80;;;;;;4148067;28;19969;-86
2023/06/09 04:21:35;;;;;;;;;;;10.50;66.00;;;;;;4148782;28;19926;-85
2023/06/09 04:23:56;;;;;;;;;;;10.60;66.20;;;;;;4144512;28;19928;-86
2023/06/09 04:26:17;;;;;;;;;;;10.60;65.70;;;;;;4161670;28;20017;-85
2023/06/09 04:28:38;;;;;;;;;;;10.60;66.60;;;;;;4162987;28;19921;-85
2023/06/09 04:31:00;;;;;;;;;;;10.70;65.80;;;;;;4144869;28;20008;-85
2023/06/09 04:33:20;;;;;;;;;;;10.70;65.30;;;;;;4161929;28;19980;-85
2023/06/09 04:35:43;;;;;;;;;;;10.70;65.00;;;;;;4162353;28;19913;-85
2023/06/09 04:38:03;;;;;;;;;;;10.80;65.50;;;;;;4146193;28;19921;-86
2023/06/09 04:40:25;;;;;;;;;;;10.90;67.00;;;;;;4159609;28;19987;-85
2023/06/09 04:42:46;;;;;;;;;;;10.80;66.60;;;;;;4159744;28;19925;-86
2023/06/09 04:45:10;;;;;;;;;;;10.90;68.10;;;;;;4162959;28;19913;-85
2023/06/09 04:47:34;;;;;;;;;;;10.90;69.90;;;;;;4148432;28;20716;-86
2023/06/09 04:49:56;;;;;;;;;;;10.90;69.90;;;;;;4157942;28;20188;-86
2023/06/09 04:52:17;;;;;;;;;;;11.00;69.20;;;;;;4160109;28;19913;-86
2023/06/09 04:54:38;;;;;;;;;;;11.00;66.70;;;;;;4149568;28;19913;-86
2023/06/09 04:57:01;;;;;;;;;;;11.00;66.60;;;;;;4164288;28;19921;-84
2023/06/09 04:59:22;;;;;;;;;;;11.10;68.40;;;;;;4161689;28;19912;-86
2023/06/09 05:01:46;;;;;;;;;;;11.10;69.30;;;;;;4146513;28;19968;-86
2023/06/09 05:04:07;;;;;;;;;;;11.10;69.40;;;;;;4163954;28;20016;-85
2023/06/09 05:06:28;;;;;;;;;;;11.20;70.40;;;;;;4147486;28;19973;-86
2023/06/09 05:08:50;;;;;;;;;;;11.20;69.50;;;;;;4162511;28;19977;-85
2023/06/09 05:11:11;;;;;;;;;;;11.20;69.70;;;;;;4162117;28;19912;-85
2023/06/09 05:13:32;;;;;;;;;;;11.30;69.90;;;;;;4157006;28;20113;-85
2023/06/09 05:15:53;;;;;;;;;;;11.30;69.40;;;;;;4147112;28;20012;-85
2023/06/09 05:18:17;;;;;;;;;;;11.30;69.60;;;;;;4161297;28;20009;-86
2023/06/09 05:20:38;;;;;;;;;;;11.30;70.90;;;;;;4164942;28;19975;-85
2023/06/09 05:22:59;;;;;;;;;;;11.30;69.30;;;;;;4147073;28;19921;-86
2023/06/09 05:25:20;;;;;;;;;;;11.30;69.30;;;;;;4164615;28;19921;-85
2023/06/09 05:27:41;;;;;;;;;;;11.40;68.80;;;;;;4160043;28;20388;-86
2023/06/09 05:30:02;;;;;;;;;;;11.40;69.10;;;;;;4167074;28;19913;-85
2023/06/09 05:32:23;;;;;;;;;;;11.40;68.20;;;;;;4148369;28;21563;-86
2023/06/09 05:34:44;;;;;;;;;;;11.50;69.30;;;;;;4164499;28;19917;-85
2023/06/09 05:37:06;;;;;;;;;;;11.50;68.80;;;;;;4167596;28;19943;-83
2023/06/09 05:39:27;;;;;;;;;;;11.50;69.40;;;;;;4152625;28;19917;-85
2023/06/09 05:41:47;;;;;;;;;;;11.50;69.60;;;;;;4164988;28;19921;-83
2023/06/09 05:44:08;;;;;;;;;;;11.60;69.90;;;;;;4164925;28;19917;-86
2023/06/09 05:46:29;;;;;;;;;;;11.60;72.50;;;;;;4173389;28;19914;-84
2023/06/09 05:48:51;;;;;;;;;;;11.60;71.60;;;;;;4180923;28;20172;-85
2023/06/09 05:51:12;;;;;;;;;;;11.70;70.30;;;;;;4168057;28;20401;-84
2023/06/09 05:53:34;;;;;;;;;;;11.70;71.70;;;;;;4149700;28;19929;-85
2023/06/09 05:55:54;;;;;;;;;;;11.80;72.00;;;;;;4159562;28;20314;-85
2023/06/09 05:58:17;;;;;;;;;;;11.80;73.20;;;;;;4147412;28;20086;-85
2023/06/09 06:00:38;;;;;;;;;;;11.80;73.90;;;;;;4162667;28;19963;-84
2023/06/09 06:03:00;;;;;;;;;;;11.80;74.70;;;;;;4158033;28;19921;-85
2023/06/09 06:05:21;;;;;;;;;;;11.80;73.50;;;;;;4157310;28;19964;-85
2023/06/09 06:07:42;;;;;;;;;;;11.90;74.20;;;;;;4142858;28;19921;-85
2023/06/09 06:10:03;;;;;;;;;;;11.80;74.40;;;;;;4143050;28;19964;-85
2023/06/09 06:12:24;;;;;;;;;;;11.90;74.60;;;;;;4141770;28;20784;-85
2023/06/09 06:14:45;;;;;;;;;;;11.90;74.80;;;;;;4160376;28;19916;-86
2023/06/09 06:17:06;;;;;;;;;;;11.90;74.50;;;;;;4144718;28;19921;-85
2023/06/09 06:19:27;;;;;;;;;;;11.90;74.00;;;;;;4145113;28;19952;-85
2023/06/09 06:21:47;;;;;;;;;;;11.90;73.90;;;;;;4158984;28;20825;-85
2023/06/09 06:24:09;;;;;;;;;;;12.00;73.50;;;;;;4149062;28;20356;-84
2023/06/09 06:26:30;;;;;;;;;;;12.10;75.50;;;;;;4160379;28;19917;-85
2023/06/09 06:28:50;;;;;;;;;;;12.00;74.90;;;;;;4141501;28;19921;-86
2023/06/09 06:31:11;;;;;;;;;;;12.10;74.00;;;;;;4141645;28;19913;-85
2023/06/09 06:33:32;;;;;;;;;;;12.10;75.30;;;;;;4155761;28;19913;-85
2023/06/09 06:35:53;;;;;;;;;;;12.20;73.90;;;;;;4159926;28;20591;-86
2023/06/09 06:38:16;;;;;;;;;;;12.20;74.40;;;;;;4163340;28;19912;-85
2023/06/09 06:40:37;;;;;;;;;;;12.20;74.80;;;;;;4151659;28;19918;-85
2023/06/09 06:42:58;;;;;;;;;;;12.30;75.50;;;;;;4107928;28;19925;-85
2023/06/09 06:45:19;;;;;;;;;;;12.40;74.70;;;;;;4136629;28;19914;-84
2023/06/09 06:47:41;;;;;;;;;;;12.40;75.50;;;;;;4126465;28;19989;-85
2023/06/09 06:50:02;;;;;;;;;;;12.50;74.70;;;;;;4143512;28;20418;-85
2023/06/09 06:52:23;;;;;;;;;;;12.50;76.40;;;;;;4125827;28;20557;-85
2023/06/09 06:54:45;;;;;;;;;;;12.60;76.80;;;;;;4123401;28;19918;-85
2023/06/09 06:57:05;;;;;;;;;;;12.70;76.00;;;;;;4126151;28;19922;-85
2023/06/09 06:59:26;;;;;;;;;;;12.70;76.90;;;;;;4142761;28;19928;-86
2023/06/09 07:01:48;;;;;;;;;;;12.90;77.50;;;;;;4142900;28;19924;-85
2023/06/09 07:04:08;;;;;;;;;;;12.90;76.90;;;;;;4130744;28;19914;-82
2023/06/09 07:06:31;;;;;;;;;;;13.10;76.80;;;;;;4152187;28;19914;-83
2023/06/09 07:08:54;;;;;;;;;;;13.10;77.60;;;;;;4150702;28;20065;-83
2023/06/09 07:11:14;;;;;;;;;;;13.20;77.40;;;;;;4139282;28;20198;-85
2023/06/09 07:13:35;;;;;;;;;;;13.20;77.40;;;;;;4144491;28;19925;-83
2023/06/09 07:15:56;;;;;;;;;;;13.30;76.90;;;;;;4145966;28;19917;-83
2023/06/09 07:18:17;;;;;;;;;;;13.50;77.60;;;;;;4140901;28;19921;-85
2023/06/09 07:20:38;;;;;;;;;;;13.50;76.70;;;;;;4136827;28;19913;-84
2023/06/09 07:22:59;;;;;;;;;;;13.60;77.20;;;;;;4130874;28;20008;-83
2023/06/09 07:25:20;;;;;;;;;;;13.70;76.90;;;;;;4145666;28;19918;-85
2023/06/09 07:27:50;;;;;;;;;;;13.90;76.20;;;;;;4146355;28;19914;-83
2023/06/09 07:30:34;;;;;;;;;;;13.90;76.60;;;;;;4130601;28;19953;-85
2023/06/09 07:32:55;;;;;;;;;;;14.10;76.40;;;;;;4067320;29;19927;-83
2023/06/09 07:35:19;;;;;;;;;;;14.30;75.40;;;;;;4078118;29;19970;-85
2023/06/09 07:37:43;;;;;;;;;;;14.30;75.60;;;;;;4078648;29;19919;-85
2023/06/09 07:40:04;;;;;;;;;;;14.50;75.30;;;;;;4078209;29;19926;-83
2023/06/09 07:42:27;;;;;;;;;;;14.60;75.60;;;;;;4072543;29;22174;-84
2023/06/09 07:44:48;;;;;;;;;;;14.80;77.50;;;;;;4077091;29;20208;-86
2023/06/09 07:47:09;;;;;;;;;;;14.90;76.10;;;;;;4067593;29;19948;-85
2023/06/09 07:49:29;;;;;;;;;;;15.10;76.10;;;;;;4078987;29;19929;-83
2023/06/09 07:51:51;;;;;;;;;;;15.20;77.20;;;;;;4078125;29;20007;-84
2023/06/09 07:54:24;;;;;;;;;;;15.30;77.80;;;;;;4065279;29;19919;-84
2023/06/09 07:56:51;;;;;;;;;;;15.50;76.20;;;;;;4082295;29;19923;-84
2023/06/09 07:59:12;;;;;;;;;;;15.60;76.50;;;;;;4077358;29;19919;-84
2023/06/09 08:01:34;;;;;;;;;;;15.70;76.00;;;;;;4072677;29;19919;-82
2023/06/09 08:03:55;;;;;;;;;;;15.80;74.90;;;;;;4121897;28;19924;-84
2023/06/09 08:06:16;;;;;;;;;;;16.00;74.20;;;;;;4129178;28;19926;-83
2023/06/09 08:08:37;;;;;;;;;;;16.10;72.80;;;;;;4140558;28;19921;-84
2023/06/09 08:10:58;;;;;;;;;;;16.20;72.30;;;;;;4140134;28;19967;-84
2023/06/09 08:13:22;;;;;;;;;;;16.30;71.70;;;;;;4125066;28;20403;-85
2023/06/09 08:15:44;;;;;;;;;;;16.40;71.70;;;;;;4135699;28;20429;-84
2023/06/09 08:18:05;;;;;;;;;;;16.50;71.30;;;;;;4129608;28;20008;-84
2023/06/09 08:20:25;;;;;;;;;;;16.60;70.20;;;;;;4135270;28;19917;-84
2023/06/09 08:22:46;;;;;;;;;;;16.70;69.80;;;;;;4146743;28;19929;-85
2023/06/09 08:25:07;;;;;;;;;;;16.80;70.30;;;;;;4134654;28;19933;-85
2023/06/09 08:27:28;;;;;;;;;;;16.90;69.90;;;;;;4164137;28;19916;-87
2023/06/09 08:29:49;;;;;;;;;;;17.00;68.30;;;;;;4157449;28;19906;-87
2023/06/09 08:32:10;;;;;;;;;;;17.10;66.50;;;;;;4164768;28;19928;-86
2023/06/09 08:34:31;;;;;;;;;;;17.20;66.90;;;;;;4164870;28;19909;-86
2023/06/09 08:36:51;;;;;;;;;;;17.30;67.10;;;;;;4145149;28;19913;-87
2023/06/09 08:39:12;;;;;;;;;;;17.40;67.30;;;;;;4156464;28;19917;-85
2023/06/09 08:41:37;;;;;;;;;;;17.50;67.10;;;;;;4133403;28;19945;-84
2023/06/09 08:43:58;;;;;;;;;;;17.70;66.30;;;;;;4146381;28;20291;-84
2023/06/09 08:46:20;;;;;;;;;;;17.70;65.70;;;;;;4130568;28;19921;-84
2023/06/09 08:48:53;;;;;;;;;;;17.80;65.10;;;;;;4132642;28;19922;-84
2023/06/09 08:51:15;;;;;;;;;;;17.90;64.30;;;;;;4134360;28;20398;-84
2023/06/09 08:53:36;;;;;;;;;;;18.00;64.50;;;;;;4152671;28;19988;-85
2023/06/09 08:55:58;;;;;;;;;;;18.20;63.80;;;;;;4138316;28;19922;-86
2023/06/09 08:58:22;;;;;;;;;;;18.20;62.80;;;;;;4131314;28;19922;-84
2023/06/09 09:00:47;;;;;;;;;;;18.30;63.20;;;;;;4145020;28;19924;-86
2023/06/09 09:03:09;;;;;;;;;;;18.40;63.60;;;;;;4163390;28;19985;-84
2023/06/09 09:05:32;;;;;;;;;;;18.50;62.80;;;;;;4134021;28;20409;-85
2023/06/09 09:07:56;;;;;;;;;;;18.60;63.20;;;;;;4127756;28;20001;-85
2023/06/09 09:10:17;;;;;;;;;;;18.60;62.80;;;;;;4140549;28;19948;-82
2023/06/09 09:12:46;;;;;;;;;;;18.70;60.90;;;;;;4133779;28;19923;-84
2023/06/09 09:15:07;;;;;;;;;;;18.80;61.40;;;;;;4147401;28;19942;-83
2023/06/09 09:17:27;;;;;;;;;;;18.90;60.80;;;;;;4148111;28;20504;-84
2023/06/09 09:19:48;;;;;;;;;;;19.00;60.70;;;;;;4146522;28;19924;-82
2023/06/09 09:22:10;;;;;;;;;;;19.10;60.50;;;;;;4128903;28;20651;-82
2023/06/09 09:24:31;;;;;;;;;;;19.10;59.00;;;;;;4138763;28;20436;-83
2023/06/09 09:26:55;;;;;;;;;;;19.20;59.20;;;;;;4126582;28;19952;-84
2023/06/09 09:29:16;;;;;;;;;;;19.40;58.60;;;;;;4128316;28;19921;-85
2023/06/09 09:31:39;;;;;;;;;;;19.40;58.10;;;;;;4150792;28;19933;-85
2023/06/09 09:34:00;;;;;;;;;;;19.50;58.20;;;;;;4129879;28;19966;-82
2023/06/09 09:36:21;;;;;;;;;;;19.50;57.50;;;;;;4133366;28;19914;-83
2023/06/09 09:38:42;;;;;;;;;;;19.60;57.50;;;;;;4144240;28;19921;-85
2023/06/09 09:41:04;;;;;;;;;;;19.60;57.60;;;;;;4142246;28;19956;-84
2023/06/09 09:43:28;;;;;;;;;;;19.70;57.50;;;;;;4146019;28;19924;-84
2023/06/09 09:45:53;;;;;;;;;;;19.80;57.70;;;;;;4145388;28;19929;-84
2023/06/09 09:48:19;;;;;;;;;;;19.80;56.10;;;;;;4142418;28;19917;-85
2023/06/09 09:50:41;;;;;;;;;;;19.90;57.00;;;;;;4139463;28;19968;-83
2023/06/09 09:53:03;;;;;;;;;;;20.00;57.20;;;;;;4147475;28;19910;-84
2023/06/09 09:55:24;;;;;;;;;;;20.10;56.90;;;;;;4141399;28;19945;-84
2023/06/09 09:57:48;;;;;;;;;;;20.10;57.10;;;;;;4148400;28;19917;-84
2023/06/09 10:00:12;;;;;;;;;;;20.30;57.80;;;;;;4141792;28;19922;-83
2023/06/09 10:02:34;;;;;;;;;;;20.30;57.10;;;;;;4136710;28;19921;-86
2023/06/09 10:04:56;;;;;;;;;;;20.40;56.40;;;;;;4139636;28;19970;-86
2023/06/09 10:07:23;;;;;;;;;;;20.60;56.80;;;;;;4127055;28;19933;-83
2023/06/09 10:09:44;;;;;;;;;;;20.60;56.10;;;;;;4123721;28;20475;-85
2023/06/09 10:12:05;;;;;;;;;;;20.70;55.30;;;;;;4119465;28;19977;-84
2023/06/09 10:14:29;;;;;;;;;;;20.80;55.50;;;;;;4136059;28;19921;-84
2023/06/09 10:16:52;;;;;;;;;;;20.90;55.60;;;;;;4121522;28;20644;-84
2023/06/09 10:19:13;;;;;;;;;;;21.00;55.80;;;;;;4134929;28;19914;-85
2023/06/09 10:21:57;;;;;;;;;;;21.10;56.00;;;;;;4122404;28;20380;-85
2023/06/09 10:24:20;;;;;;;;;;;21.20;55.20;;;;;;4057237;28;19915;-87
2023/06/09 10:27:16;;;;;;;;;;;21.30;54.40;;;;;;4076095;29;19923;-87
2023/06/09 10:29:58;;;;;;;;;;;21.40;54.60;;;;;;4075409;29;20338;-84
2023/06/09 10:32:24;;;;;;;;;;;21.50;53.00;;;;;;4074986;29;19926;-85
2023/06/09 10:34:47;;;;;;;;;;;21.60;52.30;;;;;;4061094;29;19926;-84
2023/06/09 10:37:08;;;;;;;;;;;21.70;50.00;;;;;;4080318;29;20529;-85
2023/06/09 10:39:41;;;;;;;;;;;21.80;51.00;;;;;;4075548;29;19964;-87
2023/06/09 10:42:10;;;;;;;;;;;21.80;49.10;;;;;;4073790;29;20669;-85
2023/06/09 10:44:40;;;;;;;;;;;21.90;50.40;;;;;;4062153;29;20056;-83
2023/06/09 10:50:26;;;;;;;;;;;22.10;49.60;;;;;;4047045;29;19951;-84
2023/06/09 10:52:53;;;;;;;;;;;22.10;48.10;;;;;;4045455;29;19962;-86
2023/06/09 10:55:29;;;;;;;;;;;22.20;50.20;;;;;;4042198;29;20064;-84
2023/06/09 10:57:51;;;;;;;;;;;22.30;50.40;;;;;;4035104;29;20435;-85
2023/06/09 11:00:14;;;;;;;;;;;22.30;49.30;;;;;;4044980;29;20330;-84
2023/06/09 11:02:34;;;;;;;;;;;22.30;49.10;;;;;;4075437;29;19998;-85
2023/06/09 11:04:58;;;;;;;;;;;22.40;49.50;;;;;;4061120;29;19963;-84
2023/06/09 11:07:20;;;;;;;;;;;22.40;48.30;;;;;;4073007;29;19931;-84
2023/06/09 11:09:47;;;;;;;;;;;22.50;48.40;;;;;;4065227;29;20378;-85
2023/06/09 11:12:20;;;;;;;;;;;22.50;49.20;;;;;;4066020;29;20511;-84
2023/06/09 11:14:44;;;;;;;;;;;22.50;48.80;;;;;;4075228;29;19922;-85
2023/06/09 11:17:17;;;;;;;;;;;22.50;47.90;;;;;;4061694;29;19919;-85
2023/06/09 11:19:38;;;;;;;;;;;22.50;48.20;;;;;;4074703;29;19967;-86
2023/06/09 11:22:02;;;;;;;;;;;22.50;48.40;;;;;;4064898;29;19982;-88
2023/06/09 11:24:23;;;;;;;;;;;22.50;48.50;;;;;;4075794;29;19974;-85
2023/06/09 11:26:44;;;;;;;;;;;22.40;48.40;;;;;;4112532;28;19921;-84
2023/06/09 11:29:16;;;;;;;;;;;22.40;49.40;;;;;;4143930;28;19921;-84
2023/06/09 11:31:47;;;;;;;;;;;22.50;48.00;;;;;;4140554;28;19939;-85
2023/06/09 11:34:08;;;;;;;;;;;22.40;48.20;;;;;;4144964;28;19921;-85
2023/06/09 11:36:30;;;;;;;;;;;22.50;48.70;;;;;;4133889;28;19922;-83
2023/06/09 11:38:51;;;;;;;;;;;22.50;47.80;;;;;;4139724;28;19917;-85
2023/06/09 11:41:12;;;;;;;;;;;22.50;48.30;;;;;;4136598;28;19966;-86
2023/06/09 11:43:33;;;;;;;;;;;22.50;47.90;;;;;;4145083;28;19913;-86
2023/06/09 11:46:01;;;;;;;;;;;22.50;47.40;;;;;;4129974;28;20407;-84
2023/06/09 11:48:22;;;;;;;;;;;22.40;47.10;;;;;;4134690;28;19958;-86
2023/06/09 11:50:46;;;;;;;;;;;22.40;46.70;;;;;;4141824;28;19914;-85
2023/06/09 11:53:08;;;;;;;;;;;22.30;46.70;;;;;;4131830;28;19925;-84
2023/06/09 11:55:29;;;;;;;;;;;22.30;45.50;;;;;;4149074;28;19910;-83
2023/06/09 11:57:52;;;;;;;;;;;22.30;45.80;;;;;;4133783;28;19914;-83
2023/06/09 12:00:13;;;;;;;;;;;22.30;45.70;;;;;;4148540;28;19913;-86
2023/06/09 12:02:35;;;;;;;;;;;22.30;45.40;;;;;;4130891;28;19968;-84
2023/06/09 12:04:55;;;;;;;;;;;22.30;44.00;;;;;;4143514;28;20040;-86
2023/06/09 12:07:17;;;;;;;;;;;22.30;43.50;;;;;;4135188;28;19918;-85
2023/06/09 12:09:39;;;;;;;;;;;22.30;44.30;;;;;;4147488;28;19918;-85
2023/06/09 12:12:00;;;;;;;;;;;22.30;43.20;;;;;;4147766;28;19921;-83
2023/06/09 12:14:21;;;;;;;;;;;22.40;45.00;;;;;;4131007;28;19914;-82
2023/06/09 12:16:42;;;;;;;;;;;22.50;44.70;;;;;;4147701;28;19917;-86
2023/06/09 12:19:03;;;;;;;;;;;22.50;44.80;;;;;;4130265;28;19914;-84
2023/06/09 12:21:24;;;;;;;;;;;22.50;44.90;;;;;;4150228;28;19914;-85
2023/06/09 12:23:53;;;;;;;;;;;22.50;45.20;;;;;;4141614;28;19976;-84
2023/06/09 12:26:20;;;;;;;;;;;22.50;44.80;;;;;;4144074;28;19955;-85
2023/06/09 12:28:42;;;;;;;;;;;22.50;45.50;;;;;;4143984;28;19922;-84
2023/06/09 12:31:08;;;;;;;;;;;22.50;44.00;;;;;;4139878;28;19917;-85
2023/06/09 12:33:31;;;;;;;;;;;22.50;46.20;;;;;;4129759;28;19974;-85
2023/06/09 12:36:03;;;;;;;;;;;22.50;45.50;;;;;;4130215;28;19973;-84
2023/06/09 12:38:27;;;;;;;;;;;22.50;45.80;;;;;;4129359;28;19925;-84
2023/06/09 12:40:54;;;;;;;;;;;22.50;46.40;;;;;;4126177;28;19925;-84
2023/06/09 12:43:24;;;;;;;;;;;22.50;46.00;;;;;;4141645;28;19925;-84
2023/06/09 12:45:45;;;;;;;;;;;22.50;46.30;;;;;;4144484;28;19921;-84
2023/06/09 12:48:06;;;;;;;;;;;22.50;45.80;;;;;;4129623;28;19922;-85
2023/06/09 12:50:27;;;;;;;;;;;22.60;45.60;;;;;;4129168;28;20308;-84
2023/06/09 12:52:48;;;;;;;;;;;22.50;43.90;;;;;;4145803;28;20511;-85
2023/06/09 12:55:09;;;;;;;;;;;22.60;44.40;;;;;;4132990;28;19961;-84
2023/06/09 12:57:30;;;;;;;;;;;22.50;45.20;;;;;;4126215;28;20411;-85
2023/06/09 12:59:51;;;;;;;;;;;22.60;45.70;;;;;;4132256;28;19913;-85
2023/06/09 13:02:12;;;;;;;;;;;22.60;45.40;;;;;;4138729;28;19917;-84
2023/06/09 13:04:33;;;;;;;;;;;22.50;45.30;;;;;;4131965;28;19998;-84
2023/06/09 13:06:54;;;;;;;;;;;22.50;44.90;;;;;;4141535;28;20148;-84
2023/06/09 13:09:44;;;;;;;;;;;22.60;45.60;;;;;;4137539;28;20105;-85
2023/06/09 13:12:06;;;;;;;;;;;22.50;45.30;;;;;;4066241;29;20033;-84
2023/06/09 13:14:26;;;;;;;;;;;22.60;45.00;;;;;;4081046;29;19919;-84
2023/06/09 13:16:47;;;;;;;;;;;22.60;44.50;;;;;;4080124;29;19918;-85
2023/06/09 13:19:08;;;;;;;;;;;22.60;45.30;;;;;;4072673;29;19923;-83
2023/06/09 13:21:30;;;;;;;;;;;22.60;44.70;;;;;;4088196;29;20155;-83
2023/06/09 13:23:51;;;;;;;;;;;22.60;45.70;;;;;;4066012;29;19925;-85
2023/06/09 13:26:12;;;;;;;;;;;22.60;45.80;;;;;;4088230;29;19915;-82
2023/06/09 13:28:33;;;;;;;;;;;22.70;46.50;;;;;;4078020;29;19927;-83
2023/06/09 13:30:54;;;;;;;;;;;22.60;46.00;;;;;;4075719;29;20002;-85
2023/06/09 13:33:41;;;;;;;;;;;22.60;46.50;;;;;;4065156;29;19948;-82
2023/06/09 13:36:02;;;;;;;;;;;22.60;46.20;;;;;;4057307;29;20420;-84
2023/06/09 13:38:23;;;;;;;;;;;22.50;47.30;;;;;;4067323;29;19919;-82
2023/06/09 13:41:34;;;;;;;;;;;22.50;46.80;;;;;;4079448;29;19951;-85
2023/06/09 13:44:05;;;;;;;;;;;22.50;47.10;;;;;;4081066;29;19946;-87
2023/06/09 13:46:26;;;;;;;;;;;22.40;46.30;;;;;;4077813;29;19923;-83
2023/06/09 13:48:47;;;;;;;;;;;22.40;47.90;;;;;;4097080;28;19918;-83
2023/06/09 13:51:08;;;;;;;;;;;22.40;47.80;;;;;;4141988;28;20310;-86
2023/06/09 13:53:29;;;;;;;;;;;22.40;47.40;;;;;;4143705;28;19945;-83
2023/06/09 13:55:50;;;;;;;;;;;22.40;47.70;;;;;;4125936;28;19918;-84